Terminal Aerodrome Forecast
Issued by NWS Albany, NY

Home | Current Version | Previous Version | Text Only | Print | Product List | Glossary On
Versions: 1 2 3 4 5 6 7 8 9 10 11 12 13 14 15 16 17 18 19 20 21
542
FTUS41 KALY 291132
TAFGFL
TAF
KGFL 291132Z 2912/3012 00000KT P6SM FEW060 BKN070 BKN090
     FM291700 26012G20KT P6SM BKN050 BKN100
     FM300000 33007KT P6SM SCT200=

USA.gov is the U.S. government's official web portal to all federal, state and local government web resources and services.